Time;durP1;ratioP1;P1;durP2;ratioP2;P2;SDS_P1;SDS_P2;PMS_P1;PMS_P2;Temp;Humidity;BMP_temperature;BMP_pressure;BME280_temperature;BME280_humidity;BME280_pressure;Samples;Min_cycle;Max_cycle;Signal;HPM_P1;HPM_P2
2023/09/22 00:02:29;0.00;0.00;0.62;0.00;0.00;0.62;2.03;1.20;;;29.20;30.30;;;;;;2260176;61;20365;-55
2023/09/22 00:05:15;0.00;0.00;0.62;0.00;0.00;0.62;2.03;1.40;;;29.20;30.30;;;;;;2260813;61;20899;-57
2023/09/22 00:07:59;0.00;0.00;0.62;0.00;0.00;0.62;2.17;1.57;;;29.20;30.30;;;;;;2260684;61;20444;-49
2023/09/22 00:13:20;0.00;0.00;0.62;0.00;0.00;0.62;1.97;1.27;;;29.20;30.30;;;;;;2258165;61;20374;-55
2023/09/22 00:16:05;0.00;0.00;0.62;0.00;0.00;0.62;1.77;0.90;;;29.20;30.30;;;;;;2257336;61;20404;-54
2023/09/22 00:18:50;0.00;0.00;0.62;0.00;0.00;0.62;1.70;1.27;;;29.20;30.20;;;;;;2256362;61;20374;-53
2023/09/22 00:21:36;0.00;0.00;0.62;0.00;0.00;0.62;1.90;1.23;;;29.20;30.20;;;;;;2253097;61;20409;-54
2023/09/22 00:24:21;0.00;0.00;0.62;0.00;0.00;0.62;1.90;1.40;;;29.20;30.20;;;;;;2252937;61;20418;-53
2023/09/22 00:27:06;0.00;0.00;0.62;0.00;0.00;0.62;2.10;1.30;;;29.10;30.10;;;;;;2252984;61;20415;-51
2023/09/22 00:29:50;0.00;0.00;0.62;0.00;0.00;0.62;2.10;1.20;;;29.20;30.20;;;;;;2249645;61;20526;-55
2023/09/22 00:32:35;0.00;0.00;0.62;0.00;0.00;0.62;3.73;1.47;;;29.20;30.20;;;;;;2252820;61;20362;-55
2023/09/22 00:35:19;0.00;0.00;0.62;0.00;0.00;0.62;3.00;1.20;;;29.10;30.10;;;;;;2249988;61;20366;-55
2023/09/22 00:38:06;0.00;0.00;0.62;0.00;0.00;0.62;1.63;1.07;;;29.10;30.00;;;;;;2252362;61;20796;-56
2023/09/22 00:40:51;0.00;0.00;0.62;0.00;0.00;0.62;1.53;0.90;;;29.20;30.10;;;;;;2252654;61;20394;-57
2023/09/22 00:43:36;0.00;0.00;0.62;0.00;0.00;0.62;1.73;1.27;;;29.10;30.00;;;;;;2253062;61;20362;-52
2023/09/22 00:46:25;0.00;0.00;0.62;0.00;0.00;0.62;1.63;1.07;;;29.10;30.00;;;;;;2252831;61;20859;-53
2023/09/22 00:49:10;0.00;0.00;0.62;0.00;0.00;0.62;1.87;1.10;;;29.10;30.00;;;;;;2252396;61;20378;-63
2023/09/22 00:51:55;0.00;0.00;0.62;0.00;0.00;0.62;1.80;1.00;;;29.10;30.00;;;;;;2252904;61;20374;-54
2023/09/22 00:54:42;0.00;0.00;0.62;0.00;0.00;0.62;1.50;0.90;;;29.10;30.00;;;;;;2252652;61;20927;-54
2023/09/22 00:57:27;0.00;0.00;0.62;0.00;0.00;0.62;1.80;1.00;;;29.10;30.00;;;;;;2252941;61;20785;-52
2023/09/22 01:00:16;0.00;0.00;0.62;0.00;0.00;0.62;1.87;1.13;;;29.10;30.00;;;;;;2252464;61;20418;-54
2023/09/22 01:03:01;0.00;0.00;0.62;0.00;0.00;0.62;1.90;1.27;;;29.10;30.00;;;;;;2252699;61;20371;-54
2023/09/22 01:05:46;0.00;0.00;0.62;0.00;0.00;0.62;1.60;1.00;;;29.10;30.00;;;;;;2252987;61;20928;-56
2023/09/22 01:08:31;0.00;0.00;0.62;0.00;0.00;0.62;2.03;0.90;;;29.10;30.00;;;;;;2252354;61;20398;-56
2023/09/22 01:11:17;0.00;0.00;0.62;0.00;0.00;0.62;1.87;1.03;;;29.10;30.00;;;;;;2252852;61;20893;-52
2023/09/22 01:14:02;0.00;0.00;0.62;0.00;0.00;0.62;1.70;1.23;;;29.10;30.00;;;;;;2252849;61;20371;-53
2023/09/22 01:16:50;0.00;0.00;0.62;0.00;0.00;0.62;2.20;1.20;;;29.10;30.00;;;;;;2252317;61;20412;-52
2023/09/22 01:19:35;0.00;0.00;0.62;0.00;0.00;0.62;1.73;1.20;;;29.10;30.00;;;;;;2252434;61;20398;-64
2023/09/22 01:22:23;0.00;0.00;0.62;0.00;0.00;0.62;1.67;1.00;;;29.10;30.00;;;;;;2249579;61;20405;-56
2023/09/22 01:25:08;0.00;0.00;0.62;0.00;0.00;0.62;1.87;1.00;;;29.10;30.00;;;;;;2252580;61;20375;-55
2023/09/22 01:27:53;0.00;0.00;0.62;0.00;0.00;0.62;1.70;0.90;;;29.00;30.00;;;;;;2252268;61;20883;-58
2023/09/22 01:30:41;0.00;0.00;0.62;0.00;0.00;0.62;1.67;1.00;;;29.00;30.00;;;;;;2252721;61;20487;-54
2023/09/22 01:33:25;0.00;0.00;0.62;0.00;0.00;0.62;1.93;1.33;;;29.00;30.00;;;;;;2252918;61;20408;-57
2023/09/22 01:36:11;0.00;0.00;0.62;0.00;0.00;0.62;2.00;0.90;;;29.00;30.00;;;;;;2252294;61;20490;-53
2023/09/22 01:39:01;0.00;0.00;0.62;0.00;0.00;0.62;3.30;1.47;;;29.00;30.00;;;;;;2251148;61;20890;-55
2023/09/22 01:41:46;0.00;0.00;0.62;0.00;0.00;0.62;1.63;0.80;;;29.00;30.00;;;;;;2252859;61;20417;-56
2023/09/22 01:44:31;0.00;0.00;0.62;0.00;0.00;0.62;1.60;0.93;;;29.00;30.00;;;;;;2252758;61;20902;-55
2023/09/22 01:47:15;0.00;0.00;0.62;0.00;0.00;0.62;1.90;1.10;;;29.00;30.00;;;;;;2252498;61;20390;-59
2023/09/22 01:50:00;0.00;0.00;0.62;0.00;0.00;0.62;1.60;1.00;;;29.00;30.00;;;;;;2248928;61;20433;-59
2023/09/22 01:52:45;0.00;0.00;0.62;0.00;0.00;0.62;1.50;1.00;;;29.00;30.00;;;;;;2252096;61;20371;-54
2023/09/22 01:55:31;0.00;0.00;0.62;0.00;0.00;0.62;1.70;0.90;;;29.00;30.00;;;;;;2252859;61;20410;-56
2023/09/22 01:58:16;0.00;0.00;0.62;0.00;0.00;0.62;1.70;1.10;;;29.00;30.00;;;;;;2252229;61;20375;-56
2023/09/22 02:01:01;0.00;0.00;0.62;0.00;0.00;0.62;1.67;1.10;;;29.00;30.00;;;;;;2252686;61;20449;-53
2023/09/22 02:03:46;0.00;0.00;0.62;0.00;0.00;0.62;1.47;0.90;;;29.00;30.00;;;;;;2252287;61;20366;-57
2023/09/22 02:06:31;0.00;0.00;0.62;0.00;0.00;0.62;1.40;0.90;;;29.00;30.00;;;;;;2251651;61;20367;-55
2023/09/22 02:09:16;0.00;0.00;0.62;0.00;0.00;0.62;1.90;1.30;;;29.00;30.00;;;;;;2252066;61;20386;-57
2023/09/22 02:12:01;0.00;0.00;0.62;0.00;0.00;0.62;1.70;0.90;;;29.00;30.00;;;;;;2252151;61;20371;-57
2023/09/22 02:14:46;0.00;0.00;0.62;0.00;0.00;0.62;4.17;0.93;;;29.00;30.00;;;;;;2252504;61;20909;-57
2023/09/22 02:17:31;0.00;0.00;0.62;0.00;0.00;0.62;1.50;0.90;;;29.00;30.00;;;;;;2252095;61;20374;-57
2023/09/22 02:20:22;0.00;0.00;0.62;0.00;0.00;0.62;1.50;0.90;;;29.00;29.90;;;;;;2252390;61;20399;-60
2023/09/22 02:23:07;0.00;0.00;0.62;0.00;0.00;0.62;1.70;1.07;;;29.00;29.90;;;;;;2252439;61;20375;-53
2023/09/22 02:25:51;0.00;0.00;0.62;0.00;0.00;0.62;1.90;1.10;;;29.00;29.90;;;;;;2252606;61;20371;-52
2023/09/22 02:28:37;0.00;0.00;0.62;0.00;0.00;0.62;1.73;1.00;;;28.90;29.80;;;;;;2251961;61;20395;-57
2023/09/22 02:31:22;0.00;0.00;0.62;0.00;0.00;0.62;2.07;1.10;;;28.90;29.80;;;;;;2251918;61;20510;-55
2023/09/22 02:34:06;0.00;0.00;0.62;0.00;0.00;0.62;1.97;1.20;;;28.90;29.80;;;;;;2252456;61;20447;-55
2023/09/22 02:36:51;0.00;0.00;0.62;0.00;0.00;0.62;1.40;0.80;;;28.90;29.80;;;;;;2252606;61;20363;-55
2023/09/22 02:39:36;0.00;0.00;0.62;0.00;0.00;0.62;1.70;1.10;;;28.90;29.80;;;;;;2251963;61;20382;-56
2023/09/22 02:42:21;0.00;0.00;0.62;0.00;0.00;0.62;1.73;1.00;;;28.90;29.80;;;;;;2252840;61;20418;-57
2023/09/22 02:45:09;0.00;0.00;0.62;0.00;0.00;0.62;1.70;0.87;;;28.90;29.80;;;;;;2251887;61;20453;-54
2023/09/22 02:47:53;0.00;0.00;0.62;0.00;0.00;0.62;1.90;1.10;;;28.90;29.80;;;;;;2252093;61;20483;-53
2023/09/22 02:50:38;0.00;0.00;0.62;0.00;0.00;0.62;1.60;1.07;;;28.90;29.80;;;;;;2252627;61;20378;-57
2023/09/22 02:53:22;0.00;0.00;0.62;0.00;0.00;0.62;1.60;0.90;;;28.90;29.80;;;;;;2252425;61;20370;-57
2023/09/22 02:56:07;0.00;0.00;0.62;0.00;0.00;0.62;1.70;1.07;;;28.90;29.80;;;;;;2252558;61;20394;-57
2023/09/22 02:58:53;0.00;0.00;0.62;0.00;0.00;0.62;2.20;1.10;;;28.90;29.80;;;;;;2252058;61;20663;-57
2023/09/22 03:01:39;0.00;0.00;0.62;0.00;0.00;0.62;1.60;0.80;;;28.90;29.80;;;;;;2252236;61;20414;-56
2023/09/22 03:04:24;0.00;0.00;0.62;0.00;0.00;0.62;1.80;0.90;;;28.90;29.80;;;;;;2252465;61;20391;-54
2023/09/22 03:07:09;0.00;0.00;0.62;0.00;0.00;0.62;1.30;0.70;;;28.90;29.80;;;;;;2252064;61;20398;-55
2023/09/22 03:09:53;0.00;0.00;0.62;0.00;0.00;0.62;1.40;0.90;;;28.90;29.80;;;;;;2251562;61;20391;-56
2023/09/22 03:12:39;0.00;0.00;0.62;0.00;0.00;0.62;1.50;0.80;;;28.90;29.80;;;;;;2252003;61;20913;-57
2023/09/22 03:15:24;0.00;0.00;0.62;0.00;0.00;0.62;1.60;1.07;;;28.90;29.80;;;;;;2246372;61;20445;-55
2023/09/22 03:18:10;0.00;0.00;0.62;0.00;0.00;0.62;1.40;0.80;;;28.90;29.80;;;;;;2251465;61;20378;-54
2023/09/22 03:20:55;0.00;0.00;0.62;0.00;0.00;0.62;1.50;0.87;;;28.90;29.70;;;;;;2251948;61;20394;-52
2023/09/22 03:23:39;0.00;0.00;0.62;0.00;0.00;0.62;1.40;0.90;;;28.90;29.70;;;;;;2252254;61;20395;-56
2023/09/22 03:26:23;0.00;0.00;0.62;0.00;0.00;0.62;1.90;1.13;;;28.90;29.70;;;;;;2252662;61;20391;-53
2023/09/22 03:29:08;0.00;0.00;0.62;0.00;0.00;0.62;1.70;1.00;;;28.90;29.70;;;;;;2251842;61;20429;-56
2023/09/22 03:31:53;0.00;0.00;0.62;0.00;0.00;0.62;1.80;1.10;;;28.80;29.70;;;;;;2248958;61;20374;-54
2023/09/22 03:34:39;0.00;0.00;0.62;0.00;0.00;0.62;1.67;0.83;;;28.80;29.70;;;;;;2252363;61;20426;-52
2023/09/22 03:37:28;0.00;0.00;0.62;0.00;0.00;0.62;1.53;1.00;;;28.80;29.70;;;;;;2251587;61;20375;-57
2023/09/22 03:40:14;0.00;0.00;0.62;0.00;0.00;0.62;1.70;0.93;;;28.90;29.70;;;;;;2251427;61;20619;-56
2023/09/22 03:42:58;0.00;0.00;0.62;0.00;0.00;0.62;1.50;0.90;;;28.80;29.70;;;;;;2252443;61;20491;-56
2023/09/22 03:45:43;0.00;0.00;0.62;0.00;0.00;0.62;1.73;1.13;;;28.80;29.70;;;;;;2252200;61;20459;-59
2023/09/22 03:48:28;0.00;0.00;0.62;0.00;0.00;0.62;1.67;1.00;;;28.80;29.70;;;;;;2251439;61;20449;-62
2023/09/22 03:51:13;0.00;0.00;0.62;0.00;0.00;0.62;1.73;1.10;;;28.80;29.60;;;;;;2251612;61;20901;-56
2023/09/22 03:53:59;0.00;0.00;0.62;0.00;0.00;0.62;1.57;0.83;;;28.80;29.60;;;;;;2252150;61;20490;-57
2023/09/22 03:56:44;0.00;0.00;0.62;0.00;0.00;0.62;2.43;1.07;;;28.80;29.60;;;;;;2252432;61;20406;-58
2023/09/22 03:59:29;0.00;0.00;0.62;0.00;0.00;0.62;2.13;1.20;;;28.80;29.60;;;;;;2251127;61;20378;-57
2023/09/22 04:02:14;0.00;0.00;0.62;0.00;0.00;0.62;2.70;1.10;;;28.80;29.60;;;;;;2251939;61;20775;-57
2023/09/22 04:04:59;0.00;0.00;0.62;0.00;0.00;0.62;1.60;0.80;;;28.80;29.60;;;;;;2252140;61;20421;-57
2023/09/22 04:07:45;0.00;0.00;0.62;0.00;0.00;0.62;2.00;0.90;;;28.80;29.60;;;;;;2251936;61;20394;-56
2023/09/22 04:10:32;0.00;0.00;0.62;0.00;0.00;0.62;1.50;0.90;;;28.80;29.60;;;;;;2248319;61;20389;-57
2023/09/22 04:13:18;0.00;0.00;0.62;0.00;0.00;0.62;1.90;1.10;;;28.80;29.60;;;;;;2252058;61;20370;-58
2023/09/22 04:16:04;0.00;0.00;0.62;0.00;0.00;0.62;2.13;0.93;;;28.70;29.50;;;;;;2252240;61;20366;-56
2023/09/22 04:18:54;0.00;0.00;0.62;0.00;0.00;0.62;2.07;1.13;;;28.80;30.10;;;;;;2251627;61;20774;-58
2023/09/22 04:21:43;0.00;0.00;0.62;0.00;0.00;0.62;1.80;1.13;;;28.70;29.60;;;;;;2252089;61;20920;-58
2023/09/22 04:24:32;0.00;0.00;0.62;0.00;0.00;0.62;2.00;0.83;;;28.80;29.60;;;;;;2252295;61;20472;-55
2023/09/22 04:27:17;0.00;0.00;0.62;0.00;0.00;0.62;1.63;1.00;;;28.80;29.60;;;;;;2252253;61;20425;-55
2023/09/22 04:30:07;0.00;0.00;0.62;0.00;0.00;0.62;2.03;1.40;;;28.70;29.50;;;;;;2251559;61;20449;-54
2023/09/22 04:32:51;0.00;0.00;0.62;0.00;0.00;0.62;1.50;0.90;;;28.70;29.50;;;;;;2252156;61;20786;-58
2023/09/22 04:35:37;0.00;0.00;0.62;0.00;0.00;0.62;2.00;0.90;;;28.70;29.50;;;;;;2252020;61;20439;-57
2023/09/22 04:38:22;0.00;0.00;0.62;0.00;0.00;0.62;1.50;0.90;;;28.70;29.50;;;;;;2251858;61;20378;-56
2023/09/22 04:41:08;0.00;0.00;0.62;0.00;0.00;0.62;3.10;1.10;;;28.70;29.50;;;;;;2252079;61;20386;-53
2023/09/22 04:43:54;0.00;0.00;0.62;0.00;0.00;0.62;1.60;0.93;;;28.70;29.50;;;;;;2252152;61;20397;-58
2023/09/22 04:46:39;0.00;0.00;0.62;0.00;0.00;0.62;3.50;1.20;;;28.70;29.50;;;;;;2251866;61;20414;-57
2023/09/22 04:49:23;0.00;0.00;0.62;0.00;0.00;0.62;1.30;0.80;;;28.70;29.50;;;;;;2251666;61;20394;-57
2023/09/22 04:52:08;0.00;0.00;0.62;0.00;0.00;0.62;1.50;0.80;;;28.70;29.50;;;;;;2252577;61;20437;-55
2023/09/22 04:54:53;0.00;0.00;0.62;0.00;0.00;0.62;1.70;1.00;;;28.70;30.00;;;;;;2253086;61;20457;-55
2023/09/22 04:57:40;0.00;0.00;0.62;0.00;0.00;0.62;2.10;1.13;;;28.70;29.50;;;;;;2252944;61;20888;-56
2023/09/22 05:00:27;0.00;0.00;0.62;0.00;0.00;0.62;1.90;0.90;;;28.70;29.50;;;;;;2252994;61;20948;-56
2023/09/22 05:03:11;0.00;0.00;0.62;0.00;0.00;0.62;2.43;1.00;;;28.70;29.50;;;;;;2252698;61;20413;-57
2023/09/22 05:06:06;0.00;0.00;0.62;0.00;0.00;0.62;2.17;1.17;;;28.70;29.50;;;;;;2252569;61;20374;-58
2023/09/22 05:08:50;0.00;0.00;0.62;0.00;0.00;0.62;1.60;0.90;;;28.70;29.40;;;;;;2252119;61;20499;-54
2023/09/22 05:11:35;0.00;0.00;0.62;0.00;0.00;0.62;1.60;1.10;;;28.70;29.40;;;;;;2249585;61;20438;-57
2023/09/22 05:14:21;0.00;0.00;0.62;0.00;0.00;0.62;1.80;1.00;;;28.70;29.40;;;;;;2252476;61;20367;-57
2023/09/22 05:17:06;0.00;0.00;0.62;0.00;0.00;0.62;1.60;1.00;;;28.60;29.30;;;;;;2252918;61;20367;-58
2023/09/22 05:19:51;0.00;0.00;0.62;0.00;0.00;0.62;1.60;0.97;;;28.70;29.40;;;;;;2252454;61;20486;-56
2023/09/22 05:22:36;0.00;0.00;0.62;0.00;0.00;0.62;1.30;0.70;;;28.70;29.40;;;;;;2252626;61;20506;-59
2023/09/22 05:25:21;0.00;0.00;0.62;0.00;0.00;0.62;2.60;1.63;;;28.70;29.90;;;;;;2252752;61;20421;-57
2023/09/22 05:28:08;0.00;0.00;0.62;0.00;0.00;0.62;1.97;1.20;;;28.60;29.30;;;;;;2252062;61;20423;-58
2023/09/22 05:30:54;0.00;0.00;0.62;0.00;0.00;0.62;2.07;1.20;;;28.60;29.30;;;;;;2252536;61;20394;-55
2023/09/22 05:33:38;0.00;0.00;0.62;0.00;0.00;0.62;1.70;1.20;;;28.60;29.30;;;;;;2252726;61;20371;-56
2023/09/22 05:36:23;0.00;0.00;0.62;0.00;0.00;0.62;1.80;1.10;;;28.60;29.30;;;;;;2252671;61;20399;-57
2023/09/22 05:39:09;0.00;0.00;0.62;0.00;0.00;0.62;1.77;1.17;;;28.70;29.40;;;;;;2252289;61;20834;-58
2023/09/22 05:41:53;0.00;0.00;0.62;0.00;0.00;0.62;1.60;1.20;;;28.60;29.30;;;;;;2252686;61;20828;-58
2023/09/22 05:44:38;0.00;0.00;0.62;0.00;0.00;0.62;1.73;1.20;;;28.60;29.30;;;;;;2252681;61;20411;-57
2023/09/22 05:47:25;0.00;0.00;0.62;0.00;0.00;0.62;1.90;1.00;;;28.60;29.30;;;;;;2252668;61;20798;-53
2023/09/22 05:50:11;0.00;0.00;0.62;0.00;0.00;0.62;2.23;1.27;;;28.60;29.30;;;;;;2252149;61;20426;-58
2023/09/22 05:52:56;0.00;0.00;0.62;0.00;0.00;0.62;1.70;1.20;;;28.60;29.30;;;;;;2252517;61;20390;-58
2023/09/22 05:55:40;0.00;0.00;0.62;0.00;0.00;0.62;1.80;1.23;;;28.60;29.20;;;;;;2252791;61;20894;-58
2023/09/22 05:58:25;0.00;0.00;0.62;0.00;0.00;0.62;1.90;1.20;;;28.60;29.30;;;;;;2252016;61;20427;-55
2023/09/22 06:01:11;0.00;0.00;0.62;0.00;0.00;0.62;1.67;1.30;;;28.60;29.20;;;;;;2252593;61;20505;-54
2023/09/22 06:03:58;0.00;0.00;0.62;0.00;0.00;0.62;2.00;1.33;;;28.60;29.30;;;;;;2252530;61;20359;-58
2023/09/22 06:06:42;0.00;0.00;0.62;0.00;0.00;0.62;2.10;1.27;;;28.60;29.20;;;;;;2252608;61;20399;-58
2023/09/22 06:09:27;0.00;0.00;0.62;0.00;0.00;0.62;2.97;1.50;;;28.60;29.20;;;;;;2252316;61;20388;-56
2023/09/22 06:12:12;0.00;0.00;0.62;0.00;0.00;0.62;2.30;1.40;;;28.60;29.20;;;;;;2252311;61;20422;-57
2023/09/22 06:14:59;0.00;0.00;0.62;0.00;0.00;0.62;2.10;1.50;;;28.60;29.20;;;;;;2252301;61;20371;-66
2023/09/22 06:17:43;0.00;0.00;0.62;0.00;0.00;0.62;2.27;1.27;;;28.60;29.20;;;;;;2252541;61;20402;-56
2023/09/22 06:20:29;0.00;0.00;0.62;0.00;0.00;0.62;3.23;1.40;;;28.60;29.20;;;;;;2252251;61;20450;-59
2023/09/22 06:23:14;0.00;0.00;0.62;0.00;0.00;0.62;2.57;1.40;;;28.50;29.20;;;;;;2252558;61;20371;-59
2023/09/22 06:26:02;0.00;0.00;0.62;0.00;0.00;0.62;2.33;1.33;;;28.60;29.20;;;;;;2252579;61;20459;-61
2023/09/22 06:28:46;0.00;0.00;0.62;0.00;0.00;0.62;2.10;1.60;;;28.50;29.10;;;;;;2251898;61;20395;-56
2023/09/22 06:31:31;0.00;0.00;0.62;0.00;0.00;0.62;2.33;1.57;;;28.60;29.20;;;;;;2252356;61;20913;-55
2023/09/22 06:34:15;0.00;0.00;0.62;0.00;0.00;0.62;2.60;1.53;;;28.50;29.10;;;;;;2252271;61;20908;-58
2023/09/22 06:37:01;0.00;0.00;0.62;0.00;0.00;0.62;1.90;1.33;;;28.50;29.10;;;;;;2252645;61;20370;-56
2023/09/22 06:39:46;0.00;0.00;0.62;0.00;0.00;0.62;2.13;1.33;;;28.50;29.10;;;;;;2252083;61;20407;-57
2023/09/22 06:42:31;0.00;0.00;0.62;0.00;0.00;0.62;1.80;1.27;;;28.50;29.10;;;;;;2252246;61;20807;-54
2023/09/22 06:45:18;0.00;0.00;0.62;0.00;0.00;0.62;1.87;1.33;;;28.50;29.10;;;;;;2252524;61;20366;-54
2023/09/22 06:48:05;0.00;0.00;0.62;0.00;0.00;0.62;2.30;1.47;;;28.50;29.60;;;;;;2251953;61;20466;-59
2023/09/22 06:50:51;0.00;0.00;0.62;0.00;0.00;0.62;1.70;1.13;;;28.50;29.10;;;;;;2252322;61;20381;-54
2023/09/22 06:53:38;0.00;0.00;0.62;0.00;0.00;0.62;2.33;1.30;;;28.50;29.10;;;;;;2252590;61;20366;-57
2023/09/22 06:56:23;0.00;0.00;0.62;0.00;0.00;0.62;2.13;1.23;;;28.50;29.20;;;;;;2252379;61;20378;-52
2023/09/22 06:59:09;0.00;0.00;0.62;0.00;0.00;0.62;1.87;1.33;;;28.50;29.20;;;;;;2251975;61;20422;-55
2023/09/22 07:01:54;0.00;0.00;0.62;0.00;0.00;0.62;3.10;2.03;;;28.50;29.20;;;;;;2252518;61;20896;-58
2023/09/22 07:04:40;0.00;0.00;0.62;0.00;0.00;0.62;1.80;1.23;;;28.50;29.20;;;;;;2252041;61;20771;-53
2023/09/22 07:07:26;0.00;0.00;0.62;0.00;0.00;0.62;2.20;1.30;;;28.50;29.20;;;;;;2252530;61;20897;-55
2023/09/22 07:10:12;0.00;0.00;0.62;0.00;0.00;0.62;2.30;1.30;;;28.50;29.20;;;;;;2252141;61;20407;-52
2023/09/22 07:12:58;0.00;0.00;0.62;0.00;0.00;0.62;2.20;1.50;;;28.50;29.20;;;;;;2252242;61;20375;-57
2023/09/22 07:15:43;0.00;0.00;0.62;0.00;0.00;0.62;1.80;1.20;;;28.50;29.20;;;;;;2249225;61;20370;-57
2023/09/22 07:18:28;0.00;0.00;0.62;0.00;0.00;0.62;2.20;1.43;;;28.50;29.20;;;;;;2251806;61;20435;-55
2023/09/22 07:21:12;0.00;0.00;0.62;0.00;0.00;0.62;1.70;1.00;;;28.50;29.20;;;;;;2252105;61;20837;-53
2023/09/22 07:23:58;0.00;0.00;0.62;0.00;0.00;0.62;1.90;1.47;;;28.50;29.20;;;;;;2252378;61;20366;-56
2023/09/22 07:26:44;0.00;0.00;0.62;0.00;0.00;0.62;2.87;1.40;;;28.50;29.20;;;;;;2252144;61;20362;-60
2023/09/22 07:29:28;0.00;0.00;0.62;0.00;0.00;0.62;2.63;1.67;;;28.50;29.20;;;;;;2251884;61;20514;-55
2023/09/22 07:32:14;0.00;0.00;0.62;0.00;0.00;0.62;2.07;1.40;;;28.50;29.20;;;;;;2252092;61;20937;-54
2023/09/22 07:34:59;0.00;0.00;0.62;0.00;0.00;0.62;2.27;1.30;;;28.50;29.30;;;;;;2251835;61;20422;-60
2023/09/22 07:37:45;0.00;0.00;0.62;0.00;0.00;0.62;2.03;1.40;;;28.50;29.20;;;;;;2252549;61;20362;-58
2023/09/22 07:40:30;0.00;0.00;0.62;0.00;0.00;0.62;1.80;1.10;;;28.50;29.20;;;;;;2252274;61;20385;-58
2023/09/22 07:43:16;0.00;0.00;0.62;0.00;0.00;0.62;2.30;1.27;;;28.50;29.20;;;;;;2252413;61;20778;-57
2023/09/22 07:46:06;0.00;0.00;0.62;0.00;0.00;0.62;2.27;1.70;;;28.50;29.20;;;;;;2252503;61;20379;-60
2023/09/22 07:48:53;0.00;0.00;0.62;0.00;0.00;0.62;3.03;1.70;;;28.50;29.20;;;;;;2251576;61;20395;-52
2023/09/22 07:51:38;0.00;0.00;0.62;0.00;0.00;0.62;2.27;1.53;;;28.50;29.20;;;;;;2252179;61;20394;-58
2023/09/22 07:54:24;0.00;0.00;0.62;0.00;0.00;0.62;2.20;1.57;;;28.50;29.20;;;;;;2252273;61;21132;-57
2023/09/22 07:57:09;0.00;0.00;0.62;0.00;0.00;0.62;1.97;1.57;;;28.40;29.10;;;;;;2252242;61;20785;-58
2023/09/22 07:59:56;0.00;0.00;0.62;0.00;0.00;0.62;2.93;1.37;;;28.50;29.20;;;;;;2252031;61;20410;-56
2023/09/22 08:02:41;0.00;0.00;0.62;0.00;0.00;0.62;2.33;1.50;;;28.50;29.20;;;;;;2252444;61;21004;-57
2023/09/22 08:05:26;0.00;0.00;0.62;0.00;0.00;0.62;1.90;1.40;;;28.40;29.10;;;;;;2252124;61;20430;-57
2023/09/22 08:08:11;0.00;0.00;0.62;0.00;0.00;0.62;2.10;1.50;;;28.40;29.10;;;;;;2251972;61;20864;-57
2023/09/22 08:10:56;0.00;0.00;0.62;0.00;0.00;0.62;1.73;1.13;;;28.40;29.10;;;;;;2251916;61;20418;-57
2023/09/22 08:13:41;0.00;0.00;0.62;0.00;0.00;0.62;1.50;1.00;;;28.40;29.10;;;;;;2252266;61;20435;-53
2023/09/22 08:16:27;0.00;0.00;0.62;0.00;0.00;0.62;1.90;1.40;;;28.40;29.10;;;;;;2252241;61;20363;-55
2023/09/22 08:19:11;0.00;0.00;0.62;0.00;0.00;0.62;1.80;1.20;;;28.40;29.20;;;;;;2251586;61;20386;-53
2023/09/22 08:21:57;0.00;0.00;0.62;0.00;0.00;0.62;2.60;1.33;;;28.40;29.20;;;;;;2252222;61;20418;-55
2023/09/22 08:24:41;0.00;0.00;0.62;0.00;0.00;0.62;1.80;1.40;;;28.40;29.20;;;;;;2252323;61;20394;-55
2023/09/22 08:27:29;0.00;0.00;0.62;0.00;0.00;0.62;2.50;1.40;;;28.40;29.20;;;;;;2252690;61;20394;-55
2023/09/22 08:30:15;0.00;0.00;0.62;0.00;0.00;0.62;4.73;1.23;;;28.40;29.20;;;;;;2252749;61;20830;-58
2023/09/22 08:33:02;0.00;0.00;0.62;0.00;0.00;0.62;2.50;1.60;;;28.40;29.20;;;;;;2252381;61;20908;-56
2023/09/22 08:35:48;0.00;0.00;0.62;0.00;0.00;0.62;1.90;1.20;;;28.40;29.20;;;;;;2253157;61;20901;-57
2023/09/22 08:38:33;0.00;0.00;0.62;0.00;0.00;0.62;2.20;1.47;;;28.40;29.10;;;;;;2252403;61;20408;-56
2023/09/22 08:41:18;0.00;0.00;0.62;0.00;0.00;0.62;2.00;1.30;;;28.40;29.10;;;;;;2252754;61;20932;-55
2023/09/22 08:44:05;0.00;0.00;0.62;0.00;0.00;0.62;2.20;1.50;;;28.40;29.10;;;;;;2252782;61;20370;-57
2023/09/22 08:46:49;0.00;0.00;0.62;0.00;0.00;0.62;1.87;1.20;;;28.40;29.10;;;;;;2491284;53;20391;-56
2023/09/22 08:49:35;0.00;0.00;0.62;0.00;0.00;0.62;2.13;1.13;;;28.40;29.10;;;;;;2252197;61;20383;-56
2023/09/22 08:52:22;0.00;0.00;0.62;0.00;0.00;0.62;3.40;1.53;;;28.40;29.10;;;;;;2252895;61;20494;-55
2023/09/22 08:55:12;0.00;0.00;0.62;0.00;0.00;0.62;1.97;1.37;;;28.40;29.20;;;;;;2252602;61;20414;-57
2023/09/22 08:57:56;0.00;0.00;0.62;0.00;0.00;0.62;1.70;1.13;;;28.40;29.10;;;;;;2252442;61;20429;-55
2023/09/22 09:00:41;0.00;0.00;0.62;0.00;0.00;0.62;2.10;1.50;;;28.40;29.10;;;;;;2253044;61;20391;-57
2023/09/22 09:03:27;0.00;0.00;0.62;0.00;0.00;0.62;2.53;1.50;;;28.40;29.10;;;;;;2249471;61;20972;-57
2023/09/22 09:06:17;0.00;0.00;0.62;0.00;0.00;0.62;2.27;1.07;;;28.40;29.10;;;;;;2252504;61;20405;-58
2023/09/22 09:09:12;0.00;0.00;0.62;0.00;0.00;0.62;2.33;1.20;;;28.40;29.10;;;;;;2252322;61;20444;-56
2023/09/22 09:12:02;0.00;0.00;0.62;0.00;0.00;0.62;1.57;1.07;;;28.40;29.10;;;;;;2252689;61;20366;-58
2023/09/22 09:14:49;0.00;0.00;0.62;0.00;0.00;0.62;1.80;1.37;;;28.40;29.10;;;;;;2252838;61;20374;-62
2023/09/22 09:17:34;0.00;0.00;0.62;0.00;0.00;0.62;2.57;1.13;;;28.40;29.10;;;;;;2252675;61;20358;-58
2023/09/22 09:20:18;0.00;0.00;0.62;0.00;0.00;0.62;1.93;1.20;;;28.40;29.10;;;;;;2252751;61;20390;-54
2023/09/22 09:23:19;0.00;0.00;0.62;0.00;0.00;0.62;3.07;1.30;;;28.40;29.10;;;;;;2252632;61;20366;-56
2023/09/22 09:26:04;0.00;0.00;0.62;0.00;0.00;0.62;1.67;1.07;;;28.40;29.10;;;;;;2252580;61;20387;-58
2023/09/22 09:28:49;0.00;0.00;0.62;0.00;0.00;0.62;2.47;1.30;;;28.40;29.10;;;;;;2252220;61;20479;-57
2023/09/22 09:31:45;0.00;0.00;0.62;0.00;0.00;0.62;1.83;1.17;;;28.40;29.00;;;;;;2252651;61;20379;-58
2023/09/22 09:34:41;0.00;0.00;0.62;0.00;0.00;0.62;2.03;1.37;;;28.40;29.00;;;;;;2252516;61;20433;-57
2023/09/22 09:37:26;0.00;0.00;0.62;0.00;0.00;0.62;1.90;1.20;;;28.40;29.00;;;;;;2252483;61;20434;-53
2023/09/22 09:40:12;0.00;0.00;0.62;0.00;0.00;0.62;1.77;1.17;;;28.40;29.00;;;;;;2251958;61;20939;-57
2023/09/22 09:42:59;0.00;0.00;0.62;0.00;0.00;0.62;1.70;1.10;;;28.40;29.00;;;;;;2252545;61;20406;-58
2023/09/22 09:45:47;0.00;0.00;0.62;0.00;0.00;0.62;1.73;1.13;;;28.40;29.00;;;;;;2252858;61;20394;-56
2023/09/22 09:48:37;0.00;0.00;0.62;0.00;0.00;0.62;1.53;0.93;;;28.40;29.00;;;;;;2250745;61;20383;-54
2023/09/22 09:51:24;0.00;0.00;0.62;0.00;0.00;0.62;1.90;1.13;;;28.40;29.00;;;;;;2252417;61;20534;-58
2023/09/22 09:54:13;0.00;0.00;0.62;0.00;0.00;0.62;1.70;1.00;;;28.40;29.00;;;;;;2252577;61;20414;-60
2023/09/22 09:57:00;0.00;0.00;0.62;0.00;0.00;0.62;1.70;1.20;;;28.40;29.00;;;;;;2251879;61;20434;-54
2023/09/22 09:59:46;0.00;0.00;0.62;0.00;0.00;0.62;1.77;0.93;;;28.40;29.00;;;;;;2252243;61;20394;-55
2023/09/22 10:02:32;0.00;0.00;0.62;0.00;0.00;0.62;1.30;0.80;;;28.50;29.00;;;;;;2252319;61;20409;-57
2023/09/22 10:05:19;0.00;0.00;0.62;0.00;0.00;0.62;2.00;1.10;;;28.40;29.00;;;;;;2252612;61;20875;-59
2023/09/22 10:08:06;0.00;0.00;0.62;0.00;0.00;0.62;1.77;1.00;;;28.50;29.10;;;;;;2251995;61;20387;-57
2023/09/22 10:10:55;0.00;0.00;0.62;0.00;0.00;0.62;3.33;1.40;;;28.50;29.10;;;;;;2252472;61;20394;-57
2023/09/22 10:13:43;0.00;0.00;0.62;0.00;0.00;0.62;2.07;1.17;;;28.50;29.10;;;;;;2252512;61;20367;-54
2023/09/22 10:16:32;0.00;0.00;0.62;0.00;0.00;0.62;1.80;1.20;;;28.50;29.00;;;;;;2250926;61;20967;-57
2023/09/22 10:19:36;0.00;0.00;0.62;0.00;0.00;0.62;2.03;1.00;;;28.50;29.00;;;;;;2252077;61;20430;-62
2023/09/22 10:22:21;0.00;0.00;0.62;0.00;0.00;0.62;1.63;0.87;;;28.50;29.00;;;;;;2252542;61;20490;-55
2023/09/22 10:25:25;0.00;0.00;0.62;0.00;0.00;0.62;1.63;0.87;;;28.50;29.00;;;;;;2252175;61;20830;-55
2023/09/22 10:28:27;0.00;0.00;0.62;0.00;0.00;0.62;1.63;0.80;;;28.50;29.00;;;;;;2252115;61;20849;-56
2023/09/22 10:31:17;0.00;0.00;0.62;0.00;0.00;0.62;1.67;0.93;;;28.50;29.00;;;;;;2252219;61;20374;-56
2023/09/22 10:34:44;0.00;0.00;0.62;0.00;0.00;0.62;1.50;0.93;;;28.50;29.00;;;;;;2252445;61;20366;-57
2023/09/22 10:37:32;0.00;0.00;0.62;0.00;0.00;0.62;1.87;1.13;;;28.50;29.00;;;;;;2252233;61;20359;-59
2023/09/22 10:40:19;0.00;0.00;0.62;0.00;0.00;0.62;2.00;0.90;;;28.50;29.00;;;;;;2252251;61;20390;-53
2023/09/22 10:43:04;0.00;0.00;0.62;0.00;0.00;0.62;1.70;0.93;;;28.50;29.00;;;;;;2252495;61;20453;-56
2023/09/22 10:45:51;0.00;0.00;0.62;0.00;0.00;0.62;1.50;0.90;;;28.60;29.00;;;;;;2252164;61;20421;-56
2023/09/22 10:48:38;0.00;0.00;0.62;0.00;0.00;0.62;1.60;0.90;;;28.60;29.00;;;;;;2251961;61;20952;-57
2023/09/22 10:51:42;0.00;0.00;0.62;0.00;0.00;0.62;1.50;0.90;;;28.50;29.00;;;;;;2252488;61;20863;-56
2023/09/22 10:54:26;0.00;0.00;0.62;0.00;0.00;0.62;2.03;1.20;;;28.60;29.00;;;;;;2252192;61;20972;-57
2023/09/22 10:57:23;0.00;0.00;0.62;0.00;0.00;0.62;1.37;0.80;;;28.60;29.00;;;;;;2252379;61;20933;-59
2023/09/22 11:00:13;0.00;0.00;0.62;0.00;0.00;0.62;2.00;1.03;;;28.60;29.00;;;;;;2252164;61;20389;-55